This is the latest recevied weather packets stored in our database for station/object IW0RQH-13. If no packets are shown the sender has not sent any weather packets the latest 10 day(s).
| Time | Temp. | Humidity | Pressure | Rain* | Wind** | Luminosity | Snow |
|---|---|---|---|---|---|---|---|
| 1777770545 | 10.56° C | 63% | 1020.2 hPa | 0 mm | - | 0 W/m² | - |
| 1777766045 | 10.56° C | 62% | 1020.6 hPa | 0 mm | - | 0 W/m² | - |
| 1777765503 | 11.11° C | 62% | 1020.7 hPa | 0 mm | - | 0 W/m² | - |
| 1777764963 | 11.11° C | 62% | 1020.8 hPa | 0 mm | - | 0 W/m² | - |
| 1777763886 | 11.11° C | 62% | 1021.1 hPa | 0 mm | - | 0 W/m² | - |
| 1777758845 | 12.78° C | 55% | 1020.7 hPa | 0 mm | - | 0 W/m² | - |
| 1777757787 | 13.33° C | 53% | 1020.7 hPa | 0 mm | - | 0 W/m² | - |
| 1777752543 | 16.67° C | 43% | 1020.4 hPa | 0 mm | - | 0 W/m² | - |
| 1777751643 | 17.22° C | 42% | 1020.3 hPa | 0 mm | - | 0 W/m² | - |
| 1777751103 | 17.22° C | 42% | 1020.2 hPa | 0 mm | - | 0 W/m² | - |
| 1777748404 | 17.78° C | 41% | 1019.8 hPa | 0 mm | - | 0 W/m² | - |
| 1777748046 | 17.78° C | 40% | 1019.6 hPa | 0 mm | - | 0 W/m² | - |
| 1777745890 | 18.33° C | 39% | 1019.6 hPa | 0 mm | - | 1 W/m² | - |
| 1777738684 | 21.11° C | 34% | 1019.2 hPa | 0 mm | - | 157 W/m² | - |
| 1777726827 | 21.11° C | 30% | 1020.7 hPa | 0 mm | - | 627 W/m² | - |
| 1777726445 | 20.56° C | 30% | 1020.9 hPa | 0 mm | - | 641 W/m² | - |
| 1777725906 | 20.56° C | 29% | 1020.9 hPa | 0 mm | - | 656 W/m² | - |
| 1777724283 | 21.11° C | 31% | 1021.2 hPa | 0 mm | - | 699 W/m² | - |
| 1777721247 | 20° C | 33% | 1021.3 hPa | 0 mm | - | 743 W/m² | - |
| 1777720146 | 20° C | 33% | 1021.7 hPa | 0 mm | - | 747 W/m² | - |
| 1777715103 | 18.33° C | 34% | 1022.7 hPa | 0 mm | - | 703 W/m² | - |
| 1777709343 | 13.89° C | 49% | 1023.7 hPa | 0 mm | - | 523 W/m² | - |
| 1777707905 | 12.22° C | 52% | 1023.9 hPa | 0 mm | - | 459 W/m² | - |
| 1777703226 | 9.44° C | 55% | 1024.7 hPa | 0 mm | - | 246 W/m² | - |
| 1777702683 | 8.89° C | 56% | 1024.6 hPa | 0 mm | - | 224 W/m² | - |
* Rain latest hour (hover to see other rain measurements)
** Current wind speed in m/s (hover to see current wind gust speed)